Banner, Wyoming
Current Conditions -  °F | °C
As of 5:53 AM on Monday 22 Dec 2014 (Local Time) from KSHR Reporting Station
Overcast Overcast  
Wind Chill: -3°   Ceiling: 9500
Heat Index:   Visibility: 10mi
Dew Point: -6°   Wind: 13mph
Humidity: 57%   Direction: 330°NNW
Pressure: 29.7"   Gusts: NA
Location:  44.6°N, 106.87°W
Report Text: KSHR 221253Z AUTO 33011KT 10SM FEW050 SCT070 OVC095 02/M06 A2970 RMK AO2 SLP074 T00171061
Loading
Personal Weather Stations






























Interactive Weather Map New forecast layout! Learn more

10-Day Weather Forecast

Advertisements
Track Severe Weather on mobile